sensor_id;sensor_type;location;lat;lon;timestamp;pressure;altitude;pressure_sealevel;temperature;humidity
10668;BME280;5382;42.136;24.796;2023-02-18T00:02:11;100627.78;;;9.84;60.34
10668;BME280;5382;42.136;24.796;2023-02-18T00:04:38;100626.50;;;9.75;60.06
10668;BME280;5382;42.136;24.796;2023-02-18T00:07:04;100632.25;;;9.83;59.51
10668;BME280;5382;42.136;24.796;2023-02-18T00:09:31;100632.25;;;9.83;59.50
10668;BME280;5382;42.136;24.796;2023-02-18T00:11:59;100633.56;;;9.91;59.11
10668;BME280;5382;42.136;24.796;2023-02-18T00:14:26;100626.31;;;9.94;58.43
10668;BME280;5382;42.136;24.796;2023-02-18T00:16:53;100621.63;;;9.99;58.28
10668;BME280;5382;42.136;24.796;2023-02-18T00:19:20;100618.28;;;9.96;58.36
10668;BME280;5382;42.136;24.796;2023-02-18T00:21:47;100614.28;;;10.04;57.65
10668;BME280;5382;42.136;24.796;2023-02-18T00:24:14;100611.53;;;10.06;57.63
10668;BME280;5382;42.136;24.796;2023-02-18T00:26:42;100583.34;;;9.91;56.76
10668;BME280;5382;42.136;24.796;2023-02-18T00:29:11;100608.34;;;10.15;55.96
10668;BME280;5382;42.136;24.796;2023-02-18T00:31:38;100608.53;;;10.12;55.83
10668;BME280;5382;42.136;24.796;2023-02-18T00:34:05;100606.19;;;10.22;55.67
10668;BME280;5382;42.136;24.796;2023-02-18T00:36:32;100603.47;;;10.23;55.92
10668;BME280;5382;42.136;24.796;2023-02-18T00:39:03;100597.97;;;10.26;55.59
10668;BME280;5382;42.136;24.796;2023-02-18T00:41:30;100591.53;;;10.16;56.38
10668;BME280;5382;42.136;24.796;2023-02-18T00:43:57;100590.16;;;10.25;56.06
10668;BME280;5382;42.136;24.796;2023-02-18T00:46:26;100583.25;;;10.22;55.96
10668;BME280;5382;42.136;24.796;2023-02-18T00:48:53;100580.38;;;10.11;55.86
10668;BME280;5382;42.136;24.796;2023-02-18T00:51:21;100574.91;;;10.14;56.37
10668;BME280;5382;42.136;24.796;2023-02-18T00:53:48;100579.28;;;10.15;59.61
10668;BME280;5382;42.136;24.796;2023-02-18T00:56:15;100583.66;;;10.00;61.18
10668;BME280;5382;42.136;24.796;2023-02-18T00:58:42;100579.38;;;9.68;63.52
10668;BME280;5382;42.136;24.796;2023-02-18T01:01:09;100573.44;;;9.48;63.47
10668;BME280;5382;42.136;24.796;2023-02-18T01:03:38;100570.41;;;9.40;64.60
10668;BME280;5382;42.136;24.796;2023-02-18T01:06:06;100548.81;;;8.84;65.86
10668;BME280;5382;42.136;24.796;2023-02-18T01:08:34;100565.00;;;8.78;67.02
10668;BME280;5382;42.136;24.796;2023-02-18T01:11:02;100517.34;;;8.30;67.99
10668;BME280;5382;42.136;24.796;2023-02-18T01:13:30;100552.00;;;8.58;67.64
10668;BME280;5382;42.136;24.796;2023-02-18T01:15:57;100555.78;;;8.19;71.15
10668;BME280;5382;42.136;24.796;2023-02-18T01:18:24;100540.41;;;8.09;71.25
10668;BME280;5382;42.136;24.796;2023-02-18T01:20:53;100554.69;;;8.05;72.41
10668;BME280;5382;42.136;24.796;2023-02-18T01:23:21;100546.63;;;8.08;72.19
10668;BME280;5382;42.136;24.796;2023-02-18T01:25:48;100546.84;;;8.04;72.19
10668;BME280;5382;42.136;24.796;2023-02-18T01:28:18;100547.31;;;8.12;71.11
10668;BME280;5382;42.136;24.796;2023-02-18T01:30:45;100527.78;;;8.16;71.00
10668;BME280;5382;42.136;24.796;2023-02-18T01:33:12;100535.59;;;8.18;71.02
10668;BME280;5382;42.136;24.796;2023-02-18T01:35:39;100532.88;;;8.19;71.13
10668;BME280;5382;42.136;24.796;2023-02-18T01:38:08;100520.38;;;8.23;73.14
10668;BME280;5382;42.136;24.796;2023-02-18T01:40:42;100520.09;;;8.29;73.75
10668;BME280;5382;42.136;24.796;2023-02-18T01:43:10;100504.84;;;8.01;74.05
10668;BME280;5382;42.136;24.796;2023-02-18T01:45:58;100524.59;;;8.09;73.20
10668;BME280;5382;42.136;24.796;2023-02-18T01:48:29;100522.69;;;8.13;75.48
10668;BME280;5382;42.136;24.796;2023-02-18T01:51:01;100525.44;;;8.10;75.63
10668;BME280;5382;42.136;24.796;2023-02-18T01:53:35;100506.16;;;7.92;76.89
10668;BME280;5382;42.136;24.796;2023-02-18T01:56:05;100522.97;;;7.90;77.59
10668;BME280;5382;42.136;24.796;2023-02-18T01:58:33;100518.56;;;7.73;78.05
10668;BME280;5382;42.136;24.796;2023-02-18T02:01:01;100520.66;;;7.83;76.44
10668;BME280;5382;42.136;24.796;2023-02-18T02:03:28;100520.22;;;7.93;75.95
10668;BME280;5382;42.136;24.796;2023-02-18T02:05:54;100513.81;;;8.14;73.36
10668;BME280;5382;42.136;24.796;2023-02-18T02:08:21;100500.41;;;8.19;71.59
10668;BME280;5382;42.136;24.796;2023-02-18T02:11:01;100486.97;;;8.23;71.02
10668;BME280;5382;42.136;24.796;2023-02-18T02:13:44;100513.25;;;8.42;70.27
10668;BME280;5382;42.136;24.796;2023-02-18T02:16:20;100506.19;;;8.43;69.97
10668;BME280;5382;42.136;24.796;2023-02-18T02:18:58;100518.81;;;8.54;68.92
10668;BME280;5382;42.136;24.796;2023-02-18T02:24:57;100531.81;;;8.57;68.36
10668;BME280;5382;42.136;24.796;2023-02-18T02:27:40;100535.34;;;8.57;68.84
10668;BME280;5382;42.136;24.796;2023-02-18T02:36:20;100519.03;;;8.49;67.59
10668;BME280;5382;42.136;24.796;2023-02-18T02:38:55;100516.56;;;8.46;67.60
10668;BME280;5382;42.136;24.796;2023-02-18T02:41:32;100527.50;;;8.56;66.99
10668;BME280;5382;42.136;24.796;2023-02-18T02:44:11;100516.06;;;8.39;67.88
10668;BME280;5382;42.136;24.796;2023-02-18T02:46:43;100536.19;;;8.58;66.99
10668;BME280;5382;42.136;24.796;2023-02-18T02:49:18;100531.81;;;8.57;67.40
10668;BME280;5382;42.136;24.796;2023-02-18T02:51:53;100540.06;;;8.50;67.55
10668;BME280;5382;42.136;24.796;2023-02-18T02:54:26;100505.97;;;8.30;68.30
10668;BME280;5382;42.136;24.796;2023-02-18T02:57:06;100535.13;;;8.44;68.69
10668;BME280;5382;42.136;24.796;2023-02-18T02:59:34;100533.63;;;8.39;68.63
10668;BME280;5382;42.136;24.796;2023-02-18T03:02:11;100552.16;;;8.37;68.64
10668;BME280;5382;42.136;24.796;2023-02-18T03:04:53;100537.75;;;8.27;69.50
10668;BME280;5382;42.136;24.796;2023-02-18T03:10:39;100535.63;;;8.34;68.56
10668;BME280;5382;42.136;24.796;2023-02-18T03:13:16;100512.31;;;8.26;69.02
10668;BME280;5382;42.136;24.796;2023-02-18T03:15:49;100527.50;;;8.38;68.47
10668;BME280;5382;42.136;24.796;2023-02-18T03:18:25;100516.94;;;8.38;68.66
10668;BME280;5382;42.136;24.796;2023-02-18T03:20:56;100497.38;;;8.26;68.23
10668;BME280;5382;42.136;24.796;2023-02-18T03:23:34;100482.63;;;8.22;67.70
10668;BME280;5382;42.136;24.796;2023-02-18T03:26:04;100497.59;;;8.39;67.63
10668;BME280;5382;42.136;24.796;2023-02-18T03:28:32;100496.41;;;8.45;66.79
10668;BME280;5382;42.136;24.796;2023-02-18T03:31:04;100501.75;;;8.43;66.57
10668;BME280;5382;42.136;24.796;2023-02-18T03:33:35;100498.81;;;8.49;66.18
10668;BME280;5382;42.136;24.796;2023-02-18T03:36:03;100480.44;;;8.30;66.09
10668;BME280;5382;42.136;24.796;2023-02-18T03:38:35;100509.03;;;8.56;65.27
10668;BME280;5382;42.136;24.796;2023-02-18T03:41:04;100482.28;;;8.46;64.40
10668;BME280;5382;42.136;24.796;2023-02-18T03:43:31;100503.88;;;8.70;63.47
10668;BME280;5382;42.136;24.796;2023-02-18T03:45:59;100512.81;;;8.83;62.66
10668;BME280;5382;42.136;24.796;2023-02-18T03:48:26;100508.88;;;8.90;61.93
10668;BME280;5382;42.136;24.796;2023-02-18T03:50:53;100517.25;;;8.99;61.21
10668;BME280;5382;42.136;24.796;2023-02-18T03:53:20;100527.28;;;9.08;60.24
10668;BME280;5382;42.136;24.796;2023-02-18T03:55:48;100523.44;;;9.13;59.26
10668;BME280;5382;42.136;24.796;2023-02-18T03:58:15;100515.69;;;9.10;58.60
10668;BME280;5382;42.136;24.796;2023-02-18T04:00:42;100537.50;;;9.30;57.76
10668;BME280;5382;42.136;24.796;2023-02-18T04:03:09;100525.63;;;9.37;57.08
10668;BME280;5382;42.136;24.796;2023-02-18T04:05:35;100531.03;;;9.35;60.61
10668;BME280;5382;42.136;24.796;2023-02-18T04:08:02;100523.03;;;9.05;64.52
10668;BME280;5382;42.136;24.796;2023-02-18T04:10:30;100535.81;;;9.13;58.86
10668;BME280;5382;42.136;24.796;2023-02-18T04:12:58;100528.75;;;9.29;58.03
10668;BME280;5382;42.136;24.796;2023-02-18T04:15:24;100535.34;;;9.36;57.15
10668;BME280;5382;42.136;24.796;2023-02-18T04:17:51;100542.97;;;9.43;57.42
10668;BME280;5382;42.136;24.796;2023-02-18T04:20:18;100550.59;;;9.47;56.89
10668;BME280;5382;42.136;24.796;2023-02-18T04:22:47;100523.44;;;9.45;56.23
10668;BME280;5382;42.136;24.796;2023-02-18T04:25:13;100538.50;;;9.59;56.21
10668;BME280;5382;42.136;24.796;2023-02-18T04:27:40;100537.28;;;9.65;55.46
10668;BME280;5382;42.136;24.796;2023-02-18T04:30:09;100538.72;;;9.70;55.12
10668;BME280;5382;42.136;24.796;2023-02-18T04:32:36;100527.78;;;9.76;54.40
10668;BME280;5382;42.136;24.796;2023-02-18T04:35:03;100532.06;;;9.79;54.17
10668;BME280;5382;42.136;24.796;2023-02-18T04:37:30;100530.84;;;9.85;53.91
10668;BME280;5382;42.136;24.796;2023-02-18T04:39:56;100539.34;;;9.90;53.09
10668;BME280;5382;42.136;24.796;2023-02-18T04:42:23;100542.19;;;10.01;52.42
10668;BME280;5382;42.136;24.796;2023-02-18T04:44:50;100537.31;;;10.09;51.26
10668;BME280;5382;42.136;24.796;2023-02-18T04:47:18;100528.06;;;10.16;51.19
10668;BME280;5382;42.136;24.796;2023-02-18T04:49:45;100537.59;;;10.19;50.95
10668;BME280;5382;42.136;24.796;2023-02-18T04:52:11;100527.72;;;10.22;50.51
10668;BME280;5382;42.136;24.796;2023-02-18T04:54:38;100525.16;;;10.21;50.42
10668;BME280;5382;42.136;24.796;2023-02-18T04:57:05;100534.03;;;10.20;50.79
10668;BME280;5382;42.136;24.796;2023-02-18T04:59:32;100537.25;;;10.25;50.31
10668;BME280;5382;42.136;24.796;2023-02-18T05:01:58;100535.09;;;10.32;49.75
10668;BME280;5382;42.136;24.796;2023-02-18T05:04:27;100519.59;;;10.25;49.71
10668;BME280;5382;42.136;24.796;2023-02-18T05:06:54;100517.75;;;10.28;49.45
10668;BME280;5382;42.136;24.796;2023-02-18T05:09:21;100529.94;;;10.30;49.62
10668;BME280;5382;42.136;24.796;2023-02-18T05:11:48;100532.19;;;10.36;49.56
10668;BME280;5382;42.136;24.796;2023-02-18T05:14:15;100539.09;;;10.39;49.62
10668;BME280;5382;42.136;24.796;2023-02-18T05:16:42;100527.94;;;10.34;49.33
10668;BME280;5382;42.136;24.796;2023-02-18T05:19:09;100528.50;;;10.39;49.48
10668;BME280;5382;42.136;24.796;2023-02-18T05:21:40;100533.53;;;10.43;49.55
10668;BME280;5382;42.136;24.796;2023-02-18T05:24:07;100539.47;;;10.47;49.13
10668;BME280;5382;42.136;24.796;2023-02-18T05:26:34;100522.38;;;10.38;49.54
10668;BME280;5382;42.136;24.796;2023-02-18T05:29:03;100524.63;;;10.44;49.46
10668;BME280;5382;42.136;24.796;2023-02-18T05:31:30;100535.22;;;10.44;49.21
10668;BME280;5382;42.136;24.796;2023-02-18T05:33:57;100526.34;;;10.45;49.12
10668;BME280;5382;42.136;24.796;2023-02-18T05:36:24;100524.34;;;10.49;48.96
10668;BME280;5382;42.136;24.796;2023-02-18T05:38:52;100524.09;;;10.54;48.68
10668;BME280;5382;42.136;24.796;2023-02-18T05:41:19;100523.22;;;10.53;48.47
10668;BME280;5382;42.136;24.796;2023-02-18T05:43:46;100518.47;;;10.58;48.19
10668;BME280;5382;42.136;24.796;2023-02-18T05:46:30;100508.19;;;10.39;48.24
10668;BME280;5382;42.136;24.796;2023-02-18T05:48:57;100533.81;;;10.67;48.16
10668;BME280;5382;42.136;24.796;2023-02-18T05:51:24;100534.84;;;10.79;47.62
10668;BME280;5382;42.136;24.796;2023-02-18T05:53:52;100536.25;;;10.85;47.52
10668;BME280;5382;42.136;24.796;2023-02-18T05:56:20;100536.06;;;10.88;47.56
10668;BME280;5382;42.136;24.796;2023-02-18T05:58:46;100536.91;;;10.88;47.36
10668;BME280;5382;42.136;24.796;2023-02-18T06:01:13;100530.06;;;10.99;46.76
10668;BME280;5382;42.136;24.796;2023-02-18T06:03:40;100523.09;;;10.98;46.85
10668;BME280;5382;42.136;24.796;2023-02-18T06:06:08;100524.09;;;11.09;46.38
10668;BME280;5382;42.136;24.796;2023-02-18T06:08:35;100529.09;;;11.14;45.76
10668;BME280;5382;42.136;24.796;2023-02-18T06:11:03;100526.16;;;11.19;45.80
10668;BME280;5382;42.136;24.796;2023-02-18T06:13:30;100533.69;;;11.25;45.31
10668;BME280;5382;42.136;24.796;2023-02-18T06:15:57;100527.16;;;11.30;44.60
10668;BME280;5382;42.136;24.796;2023-02-18T06:18:24;100532.72;;;11.40;44.45
10668;BME280;5382;42.136;24.796;2023-02-18T06:20:51;100507.88;;;11.28;44.13
10668;BME280;5382;42.136;24.796;2023-02-18T06:23:17;100519.09;;;11.46;43.96
10668;BME280;5382;42.136;24.796;2023-02-18T06:25:47;100531.91;;;11.52;44.05
10668;BME280;5382;42.136;24.796;2023-02-18T06:28:15;100535.53;;;11.51;43.58
10668;BME280;5382;42.136;24.796;2023-02-18T06:30:42;100524.06;;;11.51;44.08
10668;BME280;5382;42.136;24.796;2023-02-18T06:33:09;100523.75;;;11.55;43.87
10668;BME280;5382;42.136;24.796;2023-02-18T06:35:36;100522.06;;;11.54;43.23
10668;BME280;5382;42.136;24.796;2023-02-18T06:38:03;100530.91;;;11.68;43.07
10668;BME280;5382;42.136;24.796;2023-02-18T06:40:30;100534.94;;;11.73;42.80
10668;BME280;5382;42.136;24.796;2023-02-18T06:42:56;100529.44;;;11.76;42.63
10668;BME280;5382;42.136;24.796;2023-02-18T06:45:25;100520.97;;;11.84;42.40
10668;BME280;5382;42.136;24.796;2023-02-18T06:47:51;100512.25;;;11.82;42.29
10668;BME280;5382;42.136;24.796;2023-02-18T06:50:18;100520.38;;;11.93;41.99
10668;BME280;5382;42.136;24.796;2023-02-18T06:52:45;100497.28;;;11.95;42.38
10668;BME280;5382;42.136;24.796;2023-02-18T06:55:12;100511.06;;;12.00;42.12
10668;BME280;5382;42.136;24.796;2023-02-18T06:57:39;100498.97;;;11.96;42.47
10668;BME280;5382;42.136;24.796;2023-02-18T07:00:07;100499.50;;;12.02;42.28
10668;BME280;5382;42.136;24.796;2023-02-18T07:02:36;100498.66;;;12.14;42.01
10668;BME280;5382;42.136;24.796;2023-02-18T07:05:03;100497.47;;;12.18;41.66
10668;BME280;5382;42.136;24.796;2023-02-18T07:07:29;100485.09;;;12.18;41.64
10668;BME280;5382;42.136;24.796;2023-02-18T07:09:56;100489.84;;;12.26;41.72
10668;BME280;5382;42.136;24.796;2023-02-18T07:12:23;100494.41;;;12.24;42.36
10668;BME280;5382;42.136;24.796;2023-02-18T07:14:50;100497.69;;;12.28;42.17
10668;BME280;5382;42.136;24.796;2023-02-18T07:17:17;100500.56;;;12.37;42.25
10668;BME280;5382;42.136;24.796;2023-02-18T07:19:45;100495.34;;;12.49;41.59
10668;BME280;5382;42.136;24.796;2023-02-18T07:22:12;100493.75;;;12.59;41.59
10668;BME280;5382;42.136;24.796;2023-02-18T07:24:39;100483.31;;;12.69;41.24
10668;BME280;5382;42.136;24.796;2023-02-18T07:27:05;100490.13;;;12.73;40.87
10668;BME280;5382;42.136;24.796;2023-02-18T07:29:32;100496.56;;;12.81;41.07
10668;BME280;5382;42.136;24.796;2023-02-18T07:31:59;100486.25;;;12.90;40.61
10668;BME280;5382;42.136;24.796;2023-02-18T07:34:26;100477.19;;;12.92;40.63
10668;BME280;5382;42.136;24.796;2023-02-18T07:36:54;100462.19;;;13.04;40.53
10668;BME280;5382;42.136;24.796;2023-02-18T07:39:21;100463.41;;;13.11;40.45
10668;BME280;5382;42.136;24.796;2023-02-18T07:41:47;100458.63;;;13.16;40.56
10668;BME280;5382;42.136;24.796;2023-02-18T07:44:14;100453.94;;;13.20;40.37
10668;BME280;5382;42.136;24.796;2023-02-18T07:46:41;100461.44;;;13.26;40.27
10668;BME280;5382;42.136;24.796;2023-02-18T07:49:09;100468.50;;;13.27;40.00
10668;BME280;5382;42.136;24.796;2023-02-18T07:51:36;100463.25;;;13.25;40.06
10668;BME280;5382;42.136;24.796;2023-02-18T07:54:06;100455.22;;;13.27;40.22
10668;BME280;5382;42.136;24.796;2023-02-18T07:56:32;100460.91;;;13.34;40.39
10668;BME280;5382;42.136;24.796;2023-02-18T07:58:59;100461.75;;;13.34;40.21
10668;BME280;5382;42.136;24.796;2023-02-18T08:01:26;100454.34;;;13.26;40.52
10668;BME280;5382;42.136;24.796;2023-02-18T08:03:53;100450.63;;;13.29;40.85
10668;BME280;5382;42.136;24.796;2023-02-18T08:06:23;100434.84;;;13.39;40.83
10668;BME280;5382;42.136;24.796;2023-02-18T08:08:51;100444.06;;;13.46;40.19
10668;BME280;5382;42.136;24.796;2023-02-18T08:11:19;100429.91;;;13.45;40.27
10668;BME280;5382;42.136;24.796;2023-02-18T08:13:46;100442.06;;;13.72;40.28
10668;BME280;5382;42.136;24.796;2023-02-18T08:16:13;100437.50;;;13.85;39.56
10668;BME280;5382;42.136;24.796;2023-02-18T08:18:39;100449.03;;;13.97;39.40
10668;BME280;5382;42.136;24.796;2023-02-18T08:21:06;100436.69;;;14.07;39.39
10668;BME280;5382;42.136;24.796;2023-02-18T08:23:33;100432.34;;;14.29;39.28
10668;BME280;5382;42.136;24.796;2023-02-18T08:26:00;100435.75;;;14.31;39.05
10668;BME280;5382;42.136;24.796;2023-02-18T08:28:28;100429.69;;;14.29;39.36
10668;BME280;5382;42.136;24.796;2023-02-18T08:30:55;100419.28;;;14.26;39.53
10668;BME280;5382;42.136;24.796;2023-02-18T08:33:22;100435.97;;;14.39;39.66
10668;BME280;5382;42.136;24.796;2023-02-18T08:35:52;100425.81;;;14.44;39.61
10668;BME280;5382;42.136;24.796;2023-02-18T08:38:19;100423.78;;;14.59;39.66
10668;BME280;5382;42.136;24.796;2023-02-18T08:40:47;100429.91;;;14.71;39.20
10668;BME280;5382;42.136;24.796;2023-02-18T08:43:14;100424.91;;;14.89;39.46
10668;BME280;5382;42.136;24.796;2023-02-18T08:45:43;100429.34;;;15.11;39.10
10668;BME280;5382;42.136;24.796;2023-02-18T08:48:11;100428.53;;;15.31;38.84
10668;BME280;5382;42.136;24.796;2023-02-18T08:50:39;100430.31;;;15.42;38.71
10668;BME280;5382;42.136;24.796;2023-02-18T08:53:06;100431.69;;;15.57;38.38
10668;BME280;5382;42.136;24.796;2023-02-18T08:55:33;100426.81;;;15.62;38.25
10668;BME280;5382;42.136;24.796;2023-02-18T08:58:03;100437.28;;;15.54;37.73
10668;BME280;5382;42.136;24.796;2023-02-18T09:00:31;100429.03;;;15.57;38.13
10668;BME280;5382;42.136;24.796;2023-02-18T09:03:00;100428.44;;;15.75;38.17
10668;BME280;5382;42.136;24.796;2023-02-18T09:05:27;100417.19;;;15.92;36.96
10668;BME280;5382;42.136;24.796;2023-02-18T09:07:54;100387.25;;;15.88;36.55
10668;BME280;5382;42.136;24.796;2023-02-18T09:10:21;100429.03;;;16.30;36.32
10668;BME280;5382;42.136;24.796;2023-02-18T09:12:48;100412.78;;;16.43;36.43
10668;BME280;5382;42.136;24.796;2023-02-18T09:15:15;100417.59;;;16.58;36.13
10668;BME280;5382;42.136;24.796;2023-02-18T09:17:42;100430.56;;;16.63;35.67
10668;BME280;5382;42.136;24.796;2023-02-18T09:20:10;100422.28;;;16.66;35.65
10668;BME280;5382;42.136;24.796;2023-02-18T09:22:37;100399.91;;;16.57;35.91
10668;BME280;5382;42.136;24.796;2023-02-18T09:25:05;100405.13;;;16.69;36.13
10668;BME280;5382;42.136;24.796;2023-02-18T09:27:32;100386.06;;;16.83;35.75
10668;BME280;5382;42.136;24.796;2023-02-18T09:29:59;100394.66;;;17.26;35.47
10668;BME280;5382;42.136;24.796;2023-02-18T09:32:26;100441.38;;;17.12;34.58
10668;BME280;5382;42.136;24.796;2023-02-18T09:34:52;100395.22;;;17.00;34.74
10668;BME280;5382;42.136;24.796;2023-02-18T09:37:21;100400.69;;;17.08;34.67
10668;BME280;5382;42.136;24.796;2023-02-18T09:39:47;100401.97;;;17.14;34.55
10668;BME280;5382;42.136;24.796;2023-02-18T09:42:16;100399.56;;;17.11;34.60
10668;BME280;5382;42.136;24.796;2023-02-18T09:44:47;100398.88;;;17.18;34.46
10668;BME280;5382;42.136;24.796;2023-02-18T09:47:18;100415.34;;;17.23;34.48
10668;BME280;5382;42.136;24.796;2023-02-18T09:49:50;100401.25;;;17.02;34.21
10668;BME280;5382;42.136;24.796;2023-02-18T09:52:21;100402.25;;;17.11;34.09
10668;BME280;5382;42.136;24.796;2023-02-18T09:54:50;100409.84;;;17.06;34.44
10668;BME280;5382;42.136;24.796;2023-02-18T09:57:22;100416.59;;;17.00;34.54
10668;BME280;5382;42.136;24.796;2023-02-18T09:59:56;100410.69;;;16.96;34.47
10668;BME280;5382;42.136;24.796;2023-02-18T10:02:26;100386.75;;;16.95;34.34
10668;BME280;5382;42.136;24.796;2023-02-18T10:04:54;100381.81;;;16.90;34.33
10668;BME280;5382;42.136;24.796;2023-02-18T10:07:27;100407.88;;;16.98;34.43
10668;BME280;5382;42.136;24.796;2023-02-18T10:09:56;100377.34;;;17.10;34.41
10668;BME280;5382;42.136;24.796;2023-02-18T10:12:25;100370.72;;;17.43;34.19
10668;BME280;5382;42.136;24.796;2023-02-18T10:14:55;100373.19;;;17.64;33.62
10668;BME280;5382;42.136;24.796;2023-02-18T10:17:25;100356.09;;;17.95;33.27
10668;BME280;5382;42.136;24.796;2023-02-18T10:19:53;100350.94;;;18.11;32.91
10668;BME280;5382;42.136;24.796;2023-02-18T10:22:24;100348.41;;;18.09;32.14
10668;BME280;5382;42.136;24.796;2023-02-18T10:24:53;100344.88;;;18.09;32.39
10668;BME280;5382;42.136;24.796;2023-02-18T10:27:24;100333.44;;;18.17;31.75
10668;BME280;5382;42.136;24.796;2023-02-18T10:29:51;100344.25;;;18.25;31.81
10668;BME280;5382;42.136;24.796;2023-02-18T10:32:21;100347.72;;;18.35;31.85
10668;BME280;5382;42.136;24.796;2023-02-18T10:34:53;100321.94;;;18.34;31.69
10668;BME280;5382;42.136;24.796;2023-02-18T10:37:46;100324.75;;;18.33;31.40
10668;BME280;5382;42.136;24.796;2023-02-18T10:40:22;100327.28;;;18.34;31.69
10668;BME280;5382;42.136;24.796;2023-02-18T10:43:02;100326.78;;;18.48;31.59
10668;BME280;5382;42.136;24.796;2023-02-18T10:45:37;100291.75;;;18.78;31.46
10668;BME280;5382;42.136;24.796;2023-02-18T10:48:22;100299.25;;;18.92;30.99
10668;BME280;5382;42.136;24.796;2023-02-18T10:50:54;100301.47;;;18.96;30.81
10668;BME280;5382;42.136;24.796;2023-02-18T10:53:30;100266.44;;;18.62;30.69
10668;BME280;5382;42.136;24.796;2023-02-18T10:55:59;100280.34;;;18.76;30.58
10668;BME280;5382;42.136;24.796;2023-02-18T10:58:30;100294.63;;;19.02;30.22
10668;BME280;5382;42.136;24.796;2023-02-18T11:00:57;100266.81;;;19.21;30.30
10668;BME280;5382;42.136;24.796;2023-02-18T11:03:38;100264.63;;;19.77;29.13
10668;BME280;5382;42.136;24.796;2023-02-18T11:06:15;100285.44;;;20.25;28.80
10668;BME280;5382;42.136;24.796;2023-02-18T11:08:45;100284.25;;;20.95;28.13
10668;BME280;5382;42.136;24.796;2023-02-18T11:11:15;100290.63;;;21.10;28.14
10668;BME280;5382;42.136;24.796;2023-02-18T11:13:43;100274.81;;;21.48;27.68
10668;BME280;5382;42.136;24.796;2023-02-18T11:16:11;100277.75;;;22.09;27.20
10668;BME280;5382;42.136;24.796;2023-02-18T11:18:39;100276.72;;;22.18;27.38
10668;BME280;5382;42.136;24.796;2023-02-18T11:21:20;100266.94;;;21.78;27.26
10668;BME280;5382;42.136;24.796;2023-02-18T11:23:50;100254.28;;;21.39;27.84
10668;BME280;5382;42.136;24.796;2023-02-18T11:26:23;100270.63;;;20.97;28.13
10668;BME280;5382;42.136;24.796;2023-02-18T11:28:57;100245.38;;;20.65;28.75
10668;BME280;5382;42.136;24.796;2023-02-18T11:31:32;100262.38;;;21.23;28.08
10668;BME280;5382;42.136;24.796;2023-02-18T11:34:04;100259.84;;;21.85;27.84
10668;BME280;5382;42.136;24.796;2023-02-18T11:36:33;100243.59;;;22.41;27.44
10668;BME280;5382;42.136;24.796;2023-02-18T11:39:03;100243.63;;;22.79;27.54
10668;BME280;5382;42.136;24.796;2023-02-18T11:41:34;100240.88;;;23.25;26.88
10668;BME280;5382;42.136;24.796;2023-02-18T11:44:04;100232.72;;;23.63;26.39
10668;BME280;5382;42.136;24.796;2023-02-18T11:46:32;100245.44;;;23.54;26.46
10668;BME280;5382;42.136;24.796;2023-02-18T11:49:19;100238.28;;;23.32;26.03
10668;BME280;5382;42.136;24.796;2023-02-18T11:51:47;100219.25;;;22.49;26.35
10668;BME280;5382;42.136;24.796;2023-02-18T11:54:24;100241.72;;;22.41;26.35
10668;BME280;5382;42.136;24.796;2023-02-18T11:56:57;100223.56;;;22.35;26.80
10668;BME280;5382;42.136;24.796;2023-02-18T11:59:26;100212.59;;;22.60;26.28
10668;BME280;5382;42.136;24.796;2023-02-18T12:01:59;100211.28;;;23.17;26.12
10668;BME280;5382;42.136;24.796;2023-02-18T12:04:29;100200.00;;;23.43;25.67
10668;BME280;5382;42.136;24.796;2023-02-18T12:07:09;100201.06;;;24.08;25.55
10668;BME280;5382;42.136;24.796;2023-02-18T12:09:43;100181.84;;;23.51;25.67
10668;BME280;5382;42.136;24.796;2023-02-18T12:12:15;100203.91;;;23.85;25.64
10668;BME280;5382;42.136;24.796;2023-02-18T12:14:43;100198.69;;;24.20;25.43
10668;BME280;5382;42.136;24.796;2023-02-18T12:17:41;100181.00;;;24.60;25.43
10668;BME280;5382;42.136;24.796;2023-02-18T12:20:30;100191.09;;;24.94;24.99
10668;BME280;5382;42.136;24.796;2023-02-18T12:23:09;100178.16;;;25.18;24.81
10668;BME280;5382;42.136;24.796;2023-02-18T12:25:47;100175.50;;;25.31;25.31
10668;BME280;5382;42.136;24.796;2023-02-18T12:28:30;100169.66;;;24.99;24.90
10668;BME280;5382;42.136;24.796;2023-02-18T12:31:16;100169.22;;;26.20;24.47
10668;BME280;5382;42.136;24.796;2023-02-18T12:33:56;100161.53;;;25.69;25.15
10668;BME280;5382;42.136;24.796;2023-02-18T12:36:37;100122.22;;;24.04;26.26
10668;BME280;5382;42.136;24.796;2023-02-18T12:39:11;100151.72;;;23.69;26.71
10668;BME280;5382;42.136;24.796;2023-02-18T12:42:08;100161.03;;;24.40;26.57
10668;BME280;5382;42.136;24.796;2023-02-18T12:44:40;100162.69;;;24.84;26.20
10668;BME280;5382;42.136;24.796;2023-02-18T12:47:20;100102.13;;;24.35;25.93
10668;BME280;5382;42.136;24.796;2023-02-18T12:52:56;100152.78;;;25.32;25.43
10668;BME280;5382;42.136;24.796;2023-02-18T12:55:53;100139.41;;;24.61;26.04
10668;BME280;5382;42.136;24.796;2023-02-18T12:58:35;100138.94;;;24.14;26.33
10668;BME280;5382;42.136;24.796;2023-02-18T13:01:17;100137.28;;;23.11;27.40
10668;BME280;5382;42.136;24.796;2023-02-18T13:04:02;100101.75;;;23.44;27.43
10668;BME280;5382;42.136;24.796;2023-02-18T13:09:51;100140.06;;;24.70;26.44
10668;BME280;5382;42.136;24.796;2023-02-18T13:12:27;100140.16;;;24.83;26.03
10668;BME280;5382;42.136;24.796;2023-02-18T13:15:02;100137.84;;;24.73;26.55
10668;BME280;5382;42.136;24.796;2023-02-18T13:17:34;100131.06;;;25.19;26.09
10668;BME280;5382;42.136;24.796;2023-02-18T13:20:04;100125.53;;;24.71;26.83
10668;BME280;5382;42.136;24.796;2023-02-18T13:22:32;100128.50;;;24.83;26.64
10668;BME280;5382;42.136;24.796;2023-02-18T13:25:00;100129.25;;;24.98;26.86
10668;BME280;5382;42.136;24.796;2023-02-18T13:27:34;100124.38;;;25.63;26.50